Time;durP1;ratioP1;P1;durP2;ratioP2;P2;SDS_P1;SDS_P2;PMS_P1;PMS_P2;Temp;Humidity;BMP_temperature;BMP_pressure;BME280_temperature;BME280_humidity;BME280_pressure;Samples;Min_cycle;Max_cycle;Signal;HPM_P1;HPM_P2
2022/05/27 00:00:10;;;;;;;4.20;1.33;;;;;;;;;;5077152;28;20034;-77
2022/05/27 00:02:35;;;;;;;2.17;1.20;;;;;;;;;;5074169;28;20116;-77
2022/05/27 00:05:01;;;;;;;1.90;1.00;;;;;;;;;;5074459;28;20070;-78
2022/05/27 00:07:26;;;;;;;3.72;1.15;;;;;;;;;;5092582;28;20043;-78
2022/05/27 00:09:52;;;;;;;2.15;1.10;;;;;;;;;;5092310;28;20028;-77
2022/05/27 00:12:17;;;;;;;2.25;1.38;;;;;;;;;;5073994;28;20038;-77
2022/05/27 00:14:42;;;;;;;4.00;1.45;;;;;;;;;;5092269;28;20543;-77
2022/05/27 00:17:08;;;;;;;2.83;1.15;;;;;;;;;;5074029;28;20470;-77
2022/05/27 00:19:33;;;;;;;2.30;1.40;;;;;;;;;;5074211;28;20212;-77
2022/05/27 00:21:59;;;;;;;2.78;1.20;;;;;;;;;;5057352;28;20036;-77
2022/05/27 00:24:24;;;;;;;3.20;1.20;;;;;;;;;;5073893;28;20056;-77
2022/05/27 00:26:49;;;;;;;2.35;1.10;;;;;;;;;;5092284;28;20073;-77
2022/05/27 00:29:15;;;;;;;1.63;1.10;;;;;;;;;;5074202;28;20028;-77
2022/05/27 00:31:40;;;;;;;5.22;1.38;;;;;;;;;;5073906;28;20035;-77
2022/05/27 00:34:09;;;;;;;2.88;1.20;;;;;;;;;;5073852;28;20028;-77
2022/05/27 00:36:35;;;;;;;2.85;1.20;;;;;;;;;;5074159;28;20055;-77
2022/05/27 00:39:02;;;;;;;2.30;1.20;;;;;;;;;;5074023;28;20060;-77
2022/05/27 00:41:27;;;;;;;2.25;1.27;;;;;;;;;;5073613;28;20450;-77
2022/05/27 00:43:53;;;;;;;1.13;0.82;;;;;;;;;;5073395;28;20079;-77
2022/05/27 00:46:22;;;;;;;1.77;1.10;;;;;;;;;;5056922;28;20039;-77
2022/05/27 00:48:51;;;;;;;2.55;1.55;;;;;;;;;;5092269;28;20434;-76
2022/05/27 00:51:20;;;;;;;2.15;1.15;;;;;;;;;;5058034;28;20072;-76
2022/05/27 00:53:59;;;;;;;1.27;0.95;;;;;;;;;;5092143;28;20028;-78
2022/05/27 00:56:29;;;;;;;2.05;1.02;;;;;;;;;;5057112;28;20410;-76
2022/05/27 00:59:03;;;;;;;1.90;1.10;;;;;;;;;;5073948;28;20043;-76
2022/05/27 01:01:28;;;;;;;1.50;0.98;;;;;;;;;;5073898;28;20497;-77
2022/05/27 01:03:58;;;;;;;2.67;1.13;;;;;;;;;;5092208;28;20062;-77
2022/05/27 01:06:23;;;;;;;1.83;1.10;;;;;;;;;;5040696;28;20032;-77
2022/05/27 01:08:49;;;;;;;1.80;1.00;;;;;;;;;;5057363;28;20030;-77
2022/05/27 01:11:51;;;;;;;3.28;1.08;;;;;;;;;;5073903;28;20479;-76
2022/05/27 01:14:17;;;;;;;1.23;1.00;;;;;;;;;;5073596;28;20030;-77
2022/05/27 01:17:09;;;;;;;0.80;0.80;;;;;;;;;;5074483;28;20028;-76
2022/05/27 01:22:41;;;;;;;1.52;0.98;;;;;;;;;;5092087;28;20124;-76
2022/05/27 01:25:29;;;;;;;1.48;0.70;;;;;;;;;;5092090;28;20020;-76
2022/05/27 01:28:15;;;;;;;2.65;1.25;;;;;;;;;;5073611;28;20471;-76
2022/05/27 01:31:09;;;;;;;1.92;1.35;;;;;;;;;;5073560;28;20032;-77
2022/05/27 01:33:47;;;;;;;1.95;0.82;;;;;;;;;;5092298;28;20031;-77
2022/05/27 01:36:27;;;;;;;2.25;0.90;;;;;;;;;;5061021;28;20043;-77
2022/05/27 01:39:14;;;;;;;3.05;0.90;;;;;;;;;;5077357;28;20160;-77
2022/05/27 01:41:53;;;;;;;0.98;0.93;;;;;;;;;;5077228;28;20069;-78
2022/05/27 01:44:26;;;;;;;1.65;1.10;;;;;;;;;;5057003;28;20123;-78
2022/05/27 01:46:52;;;;;;;1.48;0.85;;;;;;;;;;5056832;28;20093;-77
2022/05/27 01:49:26;;;;;;;5.32;1.10;;;;;;;;;;5073745;28;20565;-78
2022/05/27 01:51:58;;;;;;;4.28;1.08;;;;;;;;;;5074747;28;20070;-76
2022/05/27 01:54:48;;;;;;;3.72;1.10;;;;;;;;;;5073165;28;20460;-76
2022/05/27 01:57:18;;;;;;;2.15;1.15;;;;;;;;;;5074606;28;20028;-77
2022/05/27 02:00:02;;;;;;;1.73;0.88;;;;;;;;;;5056342;28;20032;-77
2022/05/27 02:02:30;;;;;;;1.00;0.90;;;;;;;;;;5073329;28;20020;-77
2022/05/27 02:05:00;;;;;;;1.20;0.63;;;;;;;;;;5073045;28;20024;-77
2022/05/27 02:07:36;;;;;;;2.53;0.90;;;;;;;;;;5073166;28;20032;-77
2022/05/27 02:10:08;;;;;;;1.02;0.77;;;;;;;;;;5073259;28;20344;-77
2022/05/27 02:12:48;;;;;;;1.48;1.13;;;;;;;;;;5056778;28;20024;-77
2022/05/27 02:15:18;;;;;;;6.43;0.93;;;;;;;;;;5073306;28;20509;-76
2022/05/27 02:17:58;;;;;;;1.23;1.10;;;;;;;;;;5056727;28;20415;-77
2022/05/27 02:20:28;;;;;;;3.40;1.17;;;;;;;;;;5056224;28;20121;-77
2022/05/27 02:23:01;;;;;;;2.78;0.90;;;;;;;;;;5073222;28;20120;-77
2022/05/27 02:25:30;;;;;;;2.03;1.05;;;;;;;;;;5056325;28;20364;-77
2022/05/27 02:28:04;;;;;;;1.90;0.90;;;;;;;;;;5056264;28;20032;-77
2022/05/27 02:30:32;;;;;;;5.95;1.02;;;;;;;;;;5072952;28;20111;-76
2022/05/27 02:36:13;;;;;;;1.38;0.90;;;;;;;;;;5012248;28;20121;-76
2022/05/27 02:38:38;;;;;;;4.40;1.13;;;;;;;;;;4995765;28;20029;-76
2022/05/27 02:41:14;;;;;;;1.70;1.08;;;;;;;;;;5030714;28;20033;-76
2022/05/27 02:44:20;;;;;;;2.20;1.10;;;;;;;;;;5055548;28;20044;-77
2022/05/27 02:47:02;;;;;;;2.58;1.15;;;;;;;;;;5069965;28;20087;-77
2022/05/27 02:49:56;;;;;;;1.83;1.10;;;;;;;;;;5072645;28;20021;-77
2022/05/27 02:52:43;;;;;;;1.15;0.82;;;;;;;;;;5044896;28;20064;-77
2022/05/27 02:55:18;;;;;;;1.58;0.75;;;;;;;;;;5072363;28;20387;-77
2022/05/27 02:57:51;;;;;;;1.27;0.88;;;;;;;;;;5073675;28;20020;-77
2022/05/27 03:00:26;;;;;;;1.52;0.93;;;;;;;;;;5072250;28;20387;-77
2022/05/27 03:02:53;;;;;;;2.53;0.70;;;;;;;;;;5072050;28;20028;-77
2022/05/27 03:05:21;;;;;;;2.40;1.20;;;;;;;;;;5055159;28;20051;-78
2022/05/27 03:07:52;;;;;;;0.95;0.80;;;;;;;;;;5055609;28;20063;-77
2022/05/27 03:10:23;;;;;;;1.02;0.80;;;;;;;;;;5073540;28;20028;-78
2022/05/27 03:12:58;;;;;;;3.63;1.05;;;;;;;;;;5072976;28;20024;-77
2022/05/27 03:15:42;;;;;;;1.15;0.85;;;;;;;;;;5055035;28;20024;-77
2022/05/27 03:18:14;;;;;;;;;;;;;;;;;;5073854;28;20081;-77
2022/05/27 03:21:07;;;;;;;1.63;0.95;;;;;;;;;;5055033;28;19959;-77
2022/05/27 03:23:59;;;;;;;1.37;0.73;;;;;;;;;;5071553;28;20029;-77
2022/05/27 03:26:52;;;;;;;1.00;0.90;;;;;;;;;;5071532;28;20265;-77
2022/05/27 03:29:29;;;;;;;2.28;0.90;;;;;;;;;;5071890;28;20023;-77
2022/05/27 03:32:00;;;;;;;2.92;1.00;;;;;;;;;;5073162;28;20024;-77
2022/05/27 03:35:07;;;;;;;0.70;0.70;;;;;;;;;;5055013;28;20439;-77
2022/05/27 03:37:39;;;;;;;2.47;0.90;;;;;;;;;;5023139;28;20048;-77
2022/05/27 03:40:24;;;;;;;2.08;0.90;;;;;;;;;;5072983;28;20142;-77
2022/05/27 03:42:50;;;;;;;2.78;0.85;;;;;;;;;;5054842;28;20024;-78
2022/05/27 03:45:19;;;;;;;2.08;0.88;;;;;;;;;;5058000;28;20488;-77
2022/05/27 03:47:45;;;;;;;1.95;1.00;;;;;;;;;;5057975;28;20035;-77
2022/05/27 03:50:13;;;;;;;0.90;0.90;;;;;;;;;;5075259;28;20032;-77
2022/05/27 03:52:42;;;;;;;1.75;0.82;;;;;;;;;;5092662;28;20048;-77
2022/05/27 03:55:09;;;;;;;4.47;1.15;;;;;;;;;;5074411;28;20081;-77
2022/05/27 03:57:35;;;;;;;1.60;1.17;;;;;;;;;;5041200;28;20492;-77
2022/05/27 04:00:00;;;;;;;4.65;0.95;;;;;;;;;;5074500;28;20035;-77
2022/05/27 04:02:26;;;;;;;3.63;1.17;;;;;;;;;;5074359;28;20389;-77
2022/05/27 04:04:51;;;;;;;2.05;0.90;;;;;;;;;;5057779;28;20028;-77
2022/05/27 04:07:16;;;;;;;1.98;1.02;;;;;;;;;;5074354;28;20390;-76
2022/05/27 04:09:42;;;;;;;3.90;1.10;;;;;;;;;;5057679;28;20024;-76
2022/05/27 04:12:07;;;;;;;3.65;1.13;;;;;;;;;;5058041;28;20024;-77
2022/05/27 04:14:33;;;;;;;2.10;1.00;;;;;;;;;;5057404;28;20024;-77
2022/05/27 04:19:43;;;;;;;1.95;1.00;;;;;;;;;;5076993;28;20542;-78
2022/05/27 04:22:08;;;;;;;2.40;0.85;;;;;;;;;;5057721;28;20056;-78
2022/05/27 04:24:34;;;;;;;1.70;1.10;;;;;;;;;;5057672;28;20101;-78
2022/05/27 04:27:05;;;;;;;3.45;0.90;;;;;;;;;;5057370;28;20024;-78
2022/05/27 04:29:31;;;;;;;1.60;0.98;;;;;;;;;;5058428;28;20024;-78
2022/05/27 04:31:56;;;;;;;4.00;1.27;;;;;;;;;;5057528;28;20088;-78
2022/05/27 04:34:21;;;;;;;1.60;0.88;;;;;;;;;;5057939;28;20123;-78
2022/05/27 04:36:47;;;;;;;2.88;0.93;;;;;;;;;;5058225;28;20032;-79
2022/05/27 04:39:13;;;;;;;1.77;1.05;;;;;;;;;;5058582;28;20071;-78
2022/05/27 04:41:38;;;;;;;1.55;0.80;;;;;;;;;;5058082;28;20448;-78
2022/05/27 04:44:04;;;;;;;0.80;0.77;;;;;;;;;;5054359;28;20055;-78
2022/05/27 04:46:29;;;;;;;2.50;0.95;;;;;;;;;;5072674;28;20037;-78
2022/05/27 04:48:54;;;;;;;0.80;0.75;;;;;;;;;;5054873;28;20463;-78
2022/05/27 04:51:20;;;;;;;2.33;1.00;;;;;;;;;;5071557;28;20024;-78
2022/05/27 04:53:45;;;;;;;3.83;1.10;;;;;;;;;;5071291;28;20097;-77
2022/05/27 04:56:11;;;;;;;2.95;1.10;;;;;;;;;;5071279;28;20025;-77
2022/05/27 04:58:36;;;;;;;4.70;1.00;;;;;;;;;;5072403;28;20081;-77
2022/05/27 05:01:02;;;;;;;0.70;0.68;;;;;;;;;;5054184;28;20032;-77
2022/05/27 05:03:28;;;;;;;2.38;1.13;;;;;;;;;;5070975;28;20032;-77
2022/05/27 05:05:53;;;;;;;2.65;1.15;;;;;;;;;;5070984;28;20124;-76
2022/05/27 05:08:34;;;;;;;2.83;1.10;;;;;;;;;;5071342;28;20032;-77
2022/05/27 05:11:01;;;;;;;1.73;0.90;;;;;;;;;;5075204;28;20023;-77
2022/05/27 05:13:27;;;;;;;3.17;1.33;;;;;;;;;;5058497;28;20032;-78
2022/05/27 05:15:53;;;;;;;3.17;0.88;;;;;;;;;;5074704;28;20550;-77
2022/05/27 05:18:19;;;;;;;2.22;0.90;;;;;;;;;;5074618;28;20078;-77
2022/05/27 05:20:44;;;;;;;2.17;0.90;;;;;;;;;;5074588;28;20032;-77
2022/05/27 05:23:09;;;;;;;3.17;1.48;;;;;;;;;;5074752;28;20071;-78
2022/05/27 05:25:35;;;;;;;3.75;0.98;;;;;;;;;;5075214;28;20144;-78
2022/05/27 05:28:01;;;;;;;2.42;1.00;;;;;;;;;;5075123;28;20044;-77
2022/05/27 05:30:27;;;;;;;1.58;1.13;;;;;;;;;;5075427;28;20056;-77
2022/05/27 05:32:53;;;;;;;2.90;1.30;;;;;;;;;;5075181;28;20063;-77
2022/05/27 05:35:18;;;;;;;1.25;0.90;;;;;;;;;;5057904;28;20085;-77
2022/05/27 05:37:44;;;;;;;2.08;1.10;;;;;;;;;;5076195;28;20471;-77
2022/05/27 05:40:11;;;;;;;3.45;1.05;;;;;;;;;;5075988;28;20374;-76
2022/05/27 05:42:37;;;;;;;3.97;0.90;;;;;;;;;;5074346;28;20039;-77
2022/05/27 05:45:04;;;;;;;3.50;1.23;;;;;;;;;;5074575;28;20036;-77
2022/05/27 05:47:30;;;;;;;2.53;1.02;;;;;;;;;;5057710;28;20033;-76
2022/05/27 05:49:55;;;;;;;2.60;1.10;;;;;;;;;;5057775;28;20037;-77
2022/05/27 05:52:20;;;;;;;0.80;0.80;;;;;;;;;;5075634;28;20032;-76
2022/05/27 05:54:46;;;;;;;2.55;1.33;;;;;;;;;;5074321;28;20372;-76
2022/05/27 05:57:11;;;;;;;2.95;1.10;;;;;;;;;;5074388;28;20048;-77
2022/05/27 05:59:38;;;;;;;2.40;1.20;;;;;;;;;;5057413;28;20028;-76
2022/05/27 06:02:04;;;;;;;2.40;0.90;;;;;;;;;;5074118;28;20025;-78
2022/05/27 06:04:30;;;;;;;2.70;0.90;;;;;;;;;;5074525;28;20051;-77
2022/05/27 06:06:56;;;;;;;5.28;1.20;;;;;;;;;;5073320;28;20033;-75
2022/05/27 06:09:25;;;;;;;3.22;1.10;;;;;;;;;;5058211;28;20032;-76
2022/05/27 06:11:59;;;;;;;6.32;1.50;;;;;;;;;;5074506;28;20028;-76
2022/05/27 06:14:24;;;;;;;2.05;0.93;;;;;;;;;;5073712;28;20503;-76
2022/05/27 06:16:50;;;;;;;4.68;1.23;;;;;;;;;;5073387;28;20067;-75
2022/05/27 06:19:15;;;;;;;2.35;1.05;;;;;;;;;;5073834;28;20032;-76
2022/05/27 06:21:41;;;;;;;3.58;1.35;;;;;;;;;;5074480;28;20024;-76
2022/05/27 06:24:07;;;;;;;3.28;1.33;;;;;;;;;;5073256;28;20309;-77
2022/05/27 06:26:32;;;;;;;1.95;1.05;;;;;;;;;;5057154;28;20546;-77
2022/05/27 06:34:26;;;;;;;4.47;1.23;;;;;;;;;;5074587;28;19951;-77
2022/05/27 06:37:04;;;;;;;6.88;1.70;;;;;;;;;;5073752;28;20407;-78
2022/05/27 06:39:31;;;;;;;3.97;1.40;;;;;;;;;;5056959;28;20486;-78
2022/05/27 06:41:57;;;;;;;4.60;1.48;;;;;;;;;;5072882;28;20032;-78
2022/05/27 06:44:23;;;;;;;7.03;1.45;;;;;;;;;;5088482;28;20048;-78
2022/05/27 06:46:51;;;;;;;4.28;1.73;;;;;;;;;;5077116;28;20032;-77
2022/05/27 06:49:17;;;;;;;8.38;1.58;;;;;;;;;;5060326;28;20027;-78
2022/05/27 06:51:43;;;;;;;8.63;1.27;;;;;;;;;;5060981;28;20103;-78
2022/05/27 06:54:09;;;;;;;5.82;1.50;;;;;;;;;;5060481;28;20237;-77
2022/05/27 06:56:38;;;;;;;12.38;1.90;;;;;;;;;;5059897;28;20117;-78
2022/05/27 06:59:05;;;;;;;4.38;1.50;;;;;;;;;;5059753;28;20477;-77
2022/05/27 07:01:31;;;;;;;4.00;1.50;;;;;;;;;;5075512;28;20043;-78
2022/05/27 07:03:57;;;;;;;6.50;1.90;;;;;;;;;;5058491;28;20390;-77
2022/05/27 07:06:24;;;;;;;4.53;1.52;;;;;;;;;;5075330;28;20035;-79
2022/05/27 07:08:50;;;;;;;7.47;1.60;;;;;;;;;;5075526;28;20023;-79
2022/05/27 07:11:15;;;;;;;8.30;1.70;;;;;;;;;;5075554;28;20397;-79
2022/05/27 07:13:41;;;;;;;11.05;1.55;;;;;;;;;;5075425;28;20056;-80
2022/05/27 07:16:07;;;;;;;8.88;2.35;;;;;;;;;;5075549;28;20138;-77
2022/05/27 07:18:32;;;;;;;49.05;9.52;;;;;;;;;;5075457;28;20057;-79
2022/05/27 07:20:59;;;;;;;32.28;7.90;;;;;;;;;;5075597;28;20535;-78
2022/05/27 07:23:25;;;;;;;39.42;8.07;;;;;;;;;;5075763;28;20078;-79
2022/05/27 07:25:50;;;;;;;45.92;8.55;;;;;;;;;;5075544;28;20419;-79
2022/05/27 07:28:15;;;;;;;28.98;8.07;;;;;;;;;;5093436;28;20036;-78
2022/05/27 07:30:41;;;;;;;32.75;8.38;;;;;;;;;;5093308;28;20035;-77
2022/05/27 07:33:06;;;;;;;27.13;6.47;;;;;;;;;;5092727;28;20440;-80
2022/05/27 07:35:32;;;;;;;20.85;5.05;;;;;;;;;;5074691;28;20032;-77
2022/05/27 07:37:57;;;;;;;26.48;6.82;;;;;;;;;;5074701;28;20544;-77
2022/05/27 07:40:23;;;;;;;19.75;5.32;;;;;;;;;;5075042;28;20327;-77
2022/05/27 07:42:48;;;;;;;22.42;4.95;;;;;;;;;;5074738;28;20036;-78
2022/05/27 07:45:15;;;;;;;18.63;5.28;;;;;;;;;;5093066;28;20028;-78
2022/05/27 07:47:42;;;;;;;18.13;5.20;;;;;;;;;;5074900;28;20066;-77
2022/05/27 07:50:08;;;;;;;15.20;4.38;;;;;;;;;;5092881;28;20024;-77
2022/05/27 07:52:34;;;;;;;15.52;4.10;;;;;;;;;;5041895;28;20108;-77
2022/05/27 07:55:00;;;;;;;15.80;4.47;;;;;;;;;;5074435;28;20057;-78
2022/05/27 07:57:27;;;;;;;21.13;5.47;;;;;;;;;;5041240;28;20056;-77
2022/05/27 08:00:08;;;;;;;21.27;4.40;;;;;;;;;;5057862;28;20119;-78
2022/05/27 08:02:33;;;;;;;8.30;3.58;;;;;;;;;;5074443;28;20047;-76
2022/05/27 08:04:59;;;;;;;15.50;4.13;;;;;;;;;;5074801;28;20062;-76
2022/05/27 08:07:26;;;;;;;13.00;3.92;;;;;;;;;;5092923;28;20040;-76
2022/05/27 08:09:51;;;;;;;13.43;3.55;;;;;;;;;;5057916;28;20024;-77
2022/05/27 08:12:17;;;;;;;16.38;2.95;;;;;;;;;;5057603;28;20386;-77
2022/05/27 08:14:43;;;;;;;11.35;3.22;;;;;;;;;;5092588;28;20036;-77
2022/05/27 08:17:09;;;;;;;15.40;3.03;;;;;;;;;;5041135;28;20028;-77
2022/05/27 08:19:34;;;;;;;14.40;3.30;;;;;;;;;;5057493;28;20410;-77
2022/05/27 08:22:00;;;;;;;11.18;3.50;;;;;;;;;;5074453;28;20055;-77
2022/05/27 08:24:25;;;;;;;14.48;3.65;;;;;;;;;;5057618;28;20035;-78
2022/05/27 08:26:50;;;;;;;9.88;3.58;;;;;;;;;;5074712;28;20423;-77
2022/05/27 08:29:16;;;;;;;9.32;3.25;;;;;;;;;;5074287;28;20047;-77
2022/05/27 08:31:42;;;;;;;9.23;2.60;;;;;;;;;;5074035;28;20032;-77
2022/05/27 08:39:38;;;;;;;32.15;3.25;;;;;;;;;;5076930;28;20085;-77
2022/05/27 08:42:15;;;;;;;10.50;2.70;;;;;;;;;;5074584;28;20032;-77
2022/05/27 08:45:06;;;;;;;6.20;2.08;;;;;;;;;;5092114;28;20044;-77
2022/05/27 08:47:39;;;;;;;8.90;2.67;;;;;;;;;;5083493;28;20110;-77
2022/05/27 08:50:15;;;;;;;7.30;2.30;;;;;;;;;;5057196;28;20454;-78
2022/05/27 08:52:44;;;;;;;6.43;2.10;;;;;;;;;;5057011;28;20028;-77
2022/05/27 09:01:11;;;;;;;6.63;2.25;;;;;;;;;;5076627;28;20066;-78
2022/05/27 09:04:00;;;;;;;7.32;2.30;;;;;;;;;;5040692;28;20032;-78
2022/05/27 09:06:32;;;;;;;9.20;3.03;;;;;;;;;;5074110;28;20032;-79
2022/05/27 09:08:58;;;;;;;7.10;1.90;;;;;;;;;;5057712;28;20111;-78
2022/05/27 09:12:29;;;;;;;8.00;2.58;;;;;;;;;;5040477;28;20024;-79
2022/05/27 09:15:26;;;;;;;9.60;2.60;;;;;;;;;;5006809;28;20033;-79
2022/05/27 09:18:02;;;;;;;8.10;1.98;;;;;;;;;;4995454;28;20053;-79
2022/05/27 09:20:49;;;;;;;7.47;2.58;;;;;;;;;;5012943;28;20120;-79
2022/05/27 09:23:45;;;;;;;6.07;2.00;;;;;;;;;;4997067;28;20087;-79
2022/05/27 09:26:31;;;;;;;5.05;2.10;;;;;;;;;;5018779;28;20510;-79
2022/05/27 09:29:20;;;;;;;7.35;2.15;;;;;;;;;;5013405;28;20100;-79
2022/05/27 09:31:54;;;;;;;3.85;2.17;;;;;;;;;;5001918;28;20029;-79
2022/05/27 09:34:23;;;;;;;7.28;2.13;;;;;;;;;;4995816;28;20029;-79
2022/05/27 09:36:51;;;;;;;6.10;2.28;;;;;;;;;;4995575;28;20081;-79
2022/05/27 09:39:21;;;;;;;10.40;2.17;;;;;;;;;;5011809;28;20059;-80
2022/05/27 09:42:06;;;;;;;7.38;1.90;;;;;;;;;;5012468;28;20065;-80
2022/05/27 09:44:42;;;;;;;8.25;1.98;;;;;;;;;;5021101;28;20044;-80
2022/05/27 09:47:08;;;;;;;6.22;2.15;;;;;;;;;;5036030;28;20335;-79
2022/05/27 09:49:34;;;;;;;8.70;2.30;;;;;;;;;;5052410;28;20038;-80
2022/05/27 09:52:01;;;;;;;6.65;2.17;;;;;;;;;;5037128;28;20479;-79
2022/05/27 09:54:52;;;;;;;4.32;1.92;;;;;;;;;;5052953;28;20028;-77
2022/05/27 09:57:23;;;;;;;12.35;2.78;;;;;;;;;;5073031;28;20165;-78
2022/05/27 10:00:11;;;;;;;8.43;2.85;;;;;;;;;;5056035;28;20052;-78
2022/05/27 10:02:38;;;;;;;6.25;2.08;;;;;;;;;;5073048;28;20055;-78
2022/05/27 10:05:03;;;;;;;6.15;2.45;;;;;;;;;;5056354;28;20031;-78
2022/05/27 10:07:37;;;;;;;5.60;1.95;;;;;;;;;;5073846;28;20131;-77
2022/05/27 10:10:31;;;;;;;7.07;3.00;;;;;;;;;;5073646;28;20020;-76
2022/05/27 10:13:23;;;;;;;8.88;2.45;;;;;;;;;;5073902;28;20051;-77
2022/05/27 10:15:49;;;;;;;6.88;2.50;;;;;;;;;;5048104;28;20048;-77
2022/05/27 10:18:22;;;;;;;4.85;1.90;;;;;;;;;;5072029;28;20043;-79
2022/05/27 10:21:12;;;;;;;5.05;1.90;;;;;;;;;;5039111;28;20036;-76
2022/05/27 10:23:41;;;;;;;5.35;2.00;;;;;;;;;;5048173;28;20037;-77
2022/05/27 10:26:29;;;;;;;4.63;1.73;;;;;;;;;;5072366;28;20017;-79
2022/05/27 10:29:06;;;;;;;5.93;2.25;;;;;;;;;;5045747;28;20048;-78
2022/05/27 10:31:32;;;;;;;4.50;2.05;;;;;;;;;;5055238;28;20020;-77
2022/05/27 10:34:00;;;;;;;11.05;2.53;;;;;;;;;;5038939;28;20063;-78
2022/05/27 10:36:50;;;;;;;4.70;2.03;;;;;;;;;;5073420;28;20025;-78
2022/05/27 10:39:27;;;;;;;5.20;1.80;;;;;;;;;;5055061;28;20036;-77
2022/05/27 10:42:09;;;;;;;5.53;1.90;;;;;;;;;;5055627;28;20047;-78
2022/05/27 10:45:03;;;;;;;4.60;1.63;;;;;;;;;;5073143;28;20045;-77
2022/05/27 10:47:47;;;;;;;;;;;;;;;;;;5055554;28;20086;-77
2022/05/27 10:50:19;;;;;;;7.65;2.13;;;;;;;;;;5071406;28;20333;-79
2022/05/27 10:52:53;;;;;;;2.78;1.40;;;;;;;;;;5072047;28;20040;-78
2022/05/27 10:55:27;;;;;;;5.40;1.98;;;;;;;;;;5072972;28;20052;-79
2022/05/27 11:04:10;;;;;;;6.63;2.08;;;;;;;;;;5057841;28;20040;-78
2022/05/27 11:06:47;;;;;;;5.65;2.10;;;;;;;;;;5053974;28;20037;-79
2022/05/27 11:09:28;;;;;;;5.80;2.17;;;;;;;;;;5073336;28;20027;-82
2022/05/27 11:12:27;;;;;;;4.32;2.00;;;;;;;;;;5055021;28;20025;-80
2022/05/27 11:15:12;;;;;;;11.25;2.38;;;;;;;;;;5055126;28;20024;-78
2022/05/27 11:18:11;;;;;;;9.38;2.63;;;;;;;;;;5038467;28;20102;-81
2022/05/27 11:20:55;;;;;;;7.85;2.38;;;;;;;;;;5054992;28;20020;-80
2022/05/27 11:23:39;;;;;;;5.35;2.20;;;;;;;;;;5055170;28;20025;-79
2022/05/27 11:26:05;;;;;;;;;;;;;;;;;;5073333;28;20031;-81
2022/05/27 11:28:46;;;;;;;7.95;2.63;;;;;;;;;;5073034;28;20260;-81
2022/05/27 11:31:35;;;;;;;6.70;2.33;;;;;;;;;;5072848;28;20421;-78
2022/05/27 11:34:42;;;;;;;7.70;2.53;;;;;;;;;;5054879;28;20475;-81
2022/05/27 11:37:17;;;;;;;6.70;2.40;;;;;;;;;;5072518;28;20048;-81
2022/05/27 11:39:51;;;;;;;7.18;2.03;;;;;;;;;;5037948;28;20033;-81
2022/05/27 11:42:34;;;;;;;6.53;2.28;;;;;;;;;;5072839;28;20417;-80
2022/05/27 11:45:20;;;;;;;6.15;2.53;;;;;;;;;;5072339;28;20075;-80
2022/05/27 11:47:58;;;;;;;6.30;1.88;;;;;;;;;;5046559;28;20047;-81
2022/05/27 11:50:53;;;;;;;5.03;2.05;;;;;;;;;;5086281;28;20015;-78
2022/05/27 11:53:40;;;;;;;7.63;2.20;;;;;;;;;;5094920;28;20356;-79
2022/05/27 11:56:35;;;;;;;7.85;2.55;;;;;;;;;;5112963;28;20100;-79
2022/05/27 11:59:04;;;;;;;4.90;2.10;;;;;;;;;;5094600;28;20047;-79
2022/05/27 12:01:35;;;;;;;7.63;2.53;;;;;;;;;;5094605;28;20019;-79
2022/05/27 12:04:09;;;;;;;6.40;2.30;;;;;;;;;;5094556;28;20030;-79
2022/05/27 12:06:49;;;;;;;4.95;1.70;;;;;;;;;;5112866;28;20093;-79
2022/05/27 12:09:29;;;;;;;5.32;1.83;;;;;;;;;;5077338;28;20024;-79
2022/05/27 12:12:07;;;;;;;6.25;2.10;;;;;;;;;;5094234;28;20458;-80
2022/05/27 12:14:39;;;;;;;7.00;1.77;;;;;;;;;;5094192;28;20051;-80
2022/05/27 12:17:16;;;;;;;5.38;2.05;;;;;;;;;;5077136;28;20020;-80
2022/05/27 12:19:45;;;;;;;5.07;2.05;;;;;;;;;;5077215;28;20494;-79
2022/05/27 12:22:27;;;;;;;4.38;1.90;;;;;;;;;;5077288;28;20073;-80
2022/05/27 12:24:58;;;;;;;5.10;1.80;;;;;;;;;;5077349;28;20050;-79
2022/05/27 12:27:24;;;;;;;8.90;2.30;;;;;;;;;;5093925;28;20027;-79
2022/05/27 12:29:50;;;;;;;4.75;1.85;;;;;;;;;;5094486;28;20031;-80
2022/05/27 12:32:17;;;;;;;6.22;1.75;;;;;;;;;;5077361;28;20035;-78
2022/05/27 12:34:50;;;;;;;6.53;2.22;;;;;;;;;;5094011;28;20024;-79
2022/05/27 12:37:25;;;;;;;7.40;2.23;;;;;;;;;;5094074;28;20434;-79
2022/05/27 12:39:55;;;;;;;5.60;1.60;;;;;;;;;;5093968;28;20019;-80
2022/05/27 12:42:23;;;;;;;3.40;1.60;;;;;;;;;;5076997;28;20030;-80
2022/05/27 12:44:49;;;;;;;5.85;1.58;;;;;;;;;;5112008;28;20044;-78
2022/05/27 12:47:20;;;;;;;3.63;1.50;;;;;;;;;;5093452;28;20032;-81
2022/05/27 12:49:58;;;;;;;6.15;1.80;;;;;;;;;;5076352;28;20027;-81
2022/05/27 12:52:30;;;;;;;7.25;2.80;;;;;;;;;;5076518;28;20473;-79
2022/05/27 12:54:58;;;;;;;5.28;1.65;;;;;;;;;;5111884;28;20051;-79
2022/05/27 13:03:41;;;;;;;4.90;1.85;;;;;;;;;;5111990;28;20031;-79
2022/05/27 13:06:15;;;;;;;4.65;1.65;;;;;;;;;;5111973;28;20032;-80
2022/05/27 13:08:53;;;;;;;5.30;1.70;;;;;;;;;;5076676;28;20508;-80
2022/05/27 13:11:21;;;;;;;8.13;1.75;;;;;;;;;;5093170;28;20028;-80
2022/05/27 13:13:47;;;;;;;6.85;1.98;;;;;;;;;;5111741;28;20387;-80
2022/05/27 13:16:41;;;;;;;5.15;1.95;;;;;;;;;;5076440;28;20131;-80
2022/05/27 13:19:10;;;;;;;3.92;1.77;;;;;;;;;;5076357;28;20338;-76
2022/05/27 13:21:53;;;;;;;8.75;1.48;;;;;;;;;;5093345;28;20149;-77
2022/05/27 13:24:18;;;;;;;4.72;2.00;;;;;;;;;;5077754;28;20030;-77
2022/05/27 13:26:44;;;;;;;5.50;1.60;;;;;;;;;;5093589;28;20335;-77
2022/05/27 13:29:24;;;;;;;6.38;1.80;;;;;;;;;;5111314;28;20019;-77
2022/05/27 13:31:55;;;;;;;9.52;1.90;;;;;;;;;;5079815;28;20028;-77
2022/05/27 13:34:30;;;;;;;5.72;1.83;;;;;;;;;;5097032;28;20031;-77
2022/05/27 13:36:57;;;;;;;5.78;2.03;;;;;;;;;;5080042;28;20126;-77
2022/05/27 13:39:37;;;;;;;5.93;1.70;;;;;;;;;;5080362;28;20517;-79
2022/05/27 13:42:03;;;;;;;6.45;1.52;;;;;;;;;;5080129;28;20038;-78
2022/05/27 13:44:29;;;;;;;6.15;2.20;;;;;;;;;;5096893;28;20070;-79
2022/05/27 13:46:58;;;;;;;6.03;1.65;;;;;;;;;;5096993;28;20131;-79
2022/05/27 13:49:30;;;;;;;6.32;1.95;;;;;;;;;;5097630;28;20058;-79
2022/05/27 13:51:55;;;;;;;4.63;1.77;;;;;;;;;;5079967;28;20031;-79
2022/05/27 13:54:29;;;;;;;2.58;1.38;;;;;;;;;;5096766;28;20028;-78
2022/05/27 13:56:57;;;;;;;4.40;1.48;;;;;;;;;;5096924;28;20020;-79
2022/05/27 13:59:34;;;;;;;4.32;1.40;;;;;;;;;;5079764;28;20363;-79
2022/05/27 14:02:00;;;;;;;6.75;1.58;;;;;;;;;;5079597;28;20495;-79
2022/05/27 14:04:42;;;;;;;4.93;1.85;;;;;;;;;;5096674;28;20047;-79
2022/05/27 14:07:40;;;;;;;5.82;1.58;;;;;;;;;;5096581;28;20465;-78
2022/05/27 14:10:24;;;;;;;5.57;1.63;;;;;;;;;;5080997;28;20079;-79
2022/05/27 14:12:51;;;;;;;3.97;1.65;;;;;;;;;;5096407;28;20027;-79
2022/05/27 14:15:19;;;;;;;3.85;1.50;;;;;;;;;;5079421;28;20038;-77
2022/05/27 14:17:47;;;;;;;9.52;1.50;;;;;;;;;;5114749;28;20397;-78
2022/05/27 14:20:27;;;;;;;4.78;1.85;;;;;;;;;;5096517;28;20024;-78
2022/05/27 14:22:57;;;;;;;7.15;2.08;;;;;;;;;;5096757;28;20024;-81
2022/05/27 14:25:44;;;;;;;3.78;1.90;;;;;;;;;;5096648;28;20068;-80
2022/05/27 14:28:21;;;;;;;5.18;1.80;;;;;;;;;;5096888;28;20192;-81
2022/05/27 14:30:53;;;;;;;4.10;1.35;;;;;;;;;;5079407;28;20477;-79
2022/05/27 14:33:30;;;;;;;4.90;1.60;;;;;;;;;;5079276;28;20035;-81
2022/05/27 14:35:57;;;;;;;5.45;1.80;;;;;;;;;;5079031;28;20084;-80
2022/05/27 14:38:26;;;;;;;4.47;1.80;;;;;;;;;;5079208;28;20308;-79
2022/05/27 14:40:52;;;;;;;6.35;1.75;;;;;;;;;;5114185;28;20106;-79
2022/05/27 14:43:46;;;;;;;4.88;1.50;;;;;;;;;;5078821;28;20058;-81
2022/05/27 14:46:18;;;;;;;7.15;1.80;;;;;;;;;;5096021;28;20158;-80
2022/05/27 14:48:45;;;;;;;5.03;1.88;;;;;;;;;;5095700;28;20473;-80
2022/05/27 14:51:17;;;;;;;5.47;1.67;;;;;;;;;;5098091;28;20077;-80
2022/05/27 14:53:43;;;;;;;3.53;1.50;;;;;;;;;;5097029;28;20027;-80
2022/05/27 14:56:11;;;;;;;4.20;1.65;;;;;;;;;;5080963;28;20024;-80
2022/05/27 14:58:37;;;;;;;6.57;1.80;;;;;;;;;;5096882;28;20084;-80
2022/05/27 15:01:03;;;;;;;2.78;1.40;;;;;;;;;;5080505;28;20443;-79
2022/05/27 15:03:35;;;;;;;5.50;1.63;;;;;;;;;;5079997;28;20027;-80
2022/05/27 15:06:14;;;;;;;6.45;1.50;;;;;;;;;;5097847;28;20020;-80
2022/05/27 15:08:41;;;;;;;3.53;1.40;;;;;;;;;;5098203;28;20039;-81
2022/05/27 15:11:15;;;;;;;5.07;1.65;;;;;;;;;;5097545;28;20091;-80
2022/05/27 15:13:51;;;;;;;5.18;1.50;;;;;;;;;;5115765;28;20420;-81
2022/05/27 15:16:34;;;;;;;5.78;1.73;;;;;;;;;;5096565;28;20024;-80
2022/05/27 15:19:11;;;;;;;3.15;1.42;;;;;;;;;;5096778;28;20086;-80
2022/05/27 15:21:42;;;;;;;6.85;1.88;;;;;;;;;;5079530;28;20027;-79
2022/05/27 15:24:29;;;;;;;3.42;2.20;;;;;;;;;;5079697;28;20023;-79
2022/05/27 15:33:06;;;;;;;6.13;1.38;;;;;;;;;;5097705;28;20068;-79
2022/05/27 15:35:35;;;;;;;3.58;1.30;;;;;;;;;;5079675;28;20114;-78
2022/05/27 15:38:01;;;;;;;5.38;1.45;;;;;;;;;;5094961;28;20465;-80
2022/05/27 15:40:28;;;;;;;4.70;1.77;;;;;;;;;;5095210;28;20032;-80
2022/05/27 15:42:54;;;;;;;3.70;1.60;;;;;;;;;;5094535;28;20427;-80
2022/05/27 15:45:22;;;;;;;6.22;2.00;;;;;;;;;;5094574;28;20044;-80
2022/05/27 15:47:47;;;;;;;3.75;1.27;;;;;;;;;;5095032;28;20122;-80
2022/05/27 15:50:16;;;;;;;13.05;1.98;;;;;;;;;;5094997;28;20107;-80
2022/05/27 15:52:44;;;;;;;3.88;1.40;;;;;;;;;;5077376;28;20104;-82
2022/05/27 15:55:11;;;;;;;4.18;1.70;;;;;;;;;;5079142;28;20030;-79
2022/05/27 15:57:38;;;;;;;4.28;1.75;;;;;;;;;;5097174;28;20134;-78